sensor_id;sensor_type;location;lat;lon;timestamp;P1;durP1;ratioP1;P2;durP2;ratioP2
12511;SDS011;6321;53.798;10.382;2022-10-13T00:00:33;7.00;;;2.63;;
12511;SDS011;6321;53.798;10.382;2022-10-13T00:03:00;4.00;;;2.37;;
12511;SDS011;6321;53.798;10.382;2022-10-13T00:05:26;7.37;;;3.10;;
12511;SDS011;6321;53.798;10.382;2022-10-13T00:07:52;9.33;;;2.77;;
12511;SDS011;6321;53.798;10.382;2022-10-13T00:10:18;6.97;;;3.37;;
12511;SDS011;6321;53.798;10.382;2022-10-13T00:12:44;4.93;;;2.50;;
12511;SDS011;6321;53.798;10.382;2022-10-13T00:15:10;4.23;;;2.67;;
12511;SDS011;6321;53.798;10.382;2022-10-13T00:17:36;6.70;;;3.67;;
12511;SDS011;6321;53.798;10.382;2022-10-13T00:20:02;4.80;;;2.90;;
12511;SDS011;6321;53.798;10.382;2022-10-13T00:22:29;5.13;;;3.10;;
12511;SDS011;6321;53.798;10.382;2022-10-13T00:24:54;5.77;;;3.40;;
12511;SDS011;6321;53.798;10.382;2022-10-13T00:27:20;11.30;;;3.30;;
12511;SDS011;6321;53.798;10.382;2022-10-13T00:29:46;4.83;;;3.03;;
12511;SDS011;6321;53.798;10.382;2022-10-13T00:32:12;6.43;;;2.63;;
12511;SDS011;6321;53.798;10.382;2022-10-13T00:34:38;6.60;;;3.00;;
12511;SDS011;6321;53.798;10.382;2022-10-13T00:37:04;6.57;;;2.90;;
12511;SDS011;6321;53.798;10.382;2022-10-13T00:39:30;3.83;;;2.70;;
12511;SDS011;6321;53.798;10.382;2022-10-13T00:41:57;7.63;;;3.57;;
12511;SDS011;6321;53.798;10.382;2022-10-13T00:47:08;4.97;;;2.57;;
12511;SDS011;6321;53.798;10.382;2022-10-13T00:49:34;5.23;;;2.47;;
12511;SDS011;6321;53.798;10.382;2022-10-13T00:52:00;3.70;;;2.83;;
12511;SDS011;6321;53.798;10.382;2022-10-13T00:54:26;4.73;;;3.03;;
12511;SDS011;6321;53.798;10.382;2022-10-13T00:56:53;6.87;;;3.50;;
12511;SDS011;6321;53.798;10.382;2022-10-13T00:59:20;6.27;;;2.43;;
12511;SDS011;6321;53.798;10.382;2022-10-13T01:01:51;8.70;;;3.57;;
12511;SDS011;6321;53.798;10.382;2022-10-13T01:04:17;3.83;;;2.80;;
12511;SDS011;6321;53.798;10.382;2022-10-13T01:06:46;6.70;;;3.17;;
12511;SDS011;6321;53.798;10.382;2022-10-13T01:09:12;6.10;;;3.13;;
12511;SDS011;6321;53.798;10.382;2022-10-13T01:14:12;3.63;;;2.80;;
12511;SDS011;6321;53.798;10.382;2022-10-13T01:16:47;5.00;;;3.63;;
12511;SDS011;6321;53.798;10.382;2022-10-13T01:24:48;4.93;;;3.37;;
12511;SDS011;6321;53.798;10.382;2022-10-13T01:30:03;5.10;;;3.23;;
12511;SDS011;6321;53.798;10.382;2022-10-13T01:35:19;5.83;;;3.03;;
12511;SDS011;6321;53.798;10.382;2022-10-13T01:38:02;5.57;;;3.60;;
12511;SDS011;6321;53.798;10.382;2022-10-13T01:40:56;3.97;;;3.07;;
12511;SDS011;6321;53.798;10.382;2022-10-13T01:43:19;7.73;;;3.10;;
12511;SDS011;6321;53.798;10.382;2022-10-13T01:45:48;6.43;;;3.00;;
12511;SDS011;6321;53.798;10.382;2022-10-13T01:48:15;6.03;;;3.10;;
12511;SDS011;6321;53.798;10.382;2022-10-13T01:50:42;6.40;;;3.20;;
12511;SDS011;6321;53.798;10.382;2022-10-13T01:53:08;5.10;;;4.03;;
12511;SDS011;6321;53.798;10.382;2022-10-13T01:55:34;7.67;;;3.67;;
12511;SDS011;6321;53.798;10.382;2022-10-13T01:58:00;4.17;;;3.23;;
12511;SDS011;6321;53.798;10.382;2022-10-13T02:00:26;5.77;;;2.87;;
12511;SDS011;6321;53.798;10.382;2022-10-13T02:03:16;13.17;;;3.33;;
12511;SDS011;6321;53.798;10.382;2022-10-13T02:05:47;7.87;;;3.30;;
12511;SDS011;6321;53.798;10.382;2022-10-13T02:08:17;8.27;;;3.47;;
12511;SDS011;6321;53.798;10.382;2022-10-13T02:13:27;7.30;;;3.20;;
12511;SDS011;6321;53.798;10.382;2022-10-13T02:15:54;4.70;;;3.40;;
12511;SDS011;6321;53.798;10.382;2022-10-13T02:18:29;6.87;;;3.20;;
12511;SDS011;6321;53.798;10.382;2022-10-13T02:20:56;3.47;;;2.93;;
12511;SDS011;6321;53.798;10.382;2022-10-13T02:23:22;8.77;;;3.40;;
12511;SDS011;6321;53.798;10.382;2022-10-13T02:25:48;6.67;;;3.77;;
12511;SDS011;6321;53.798;10.382;2022-10-13T02:28:15;5.93;;;2.90;;
12511;SDS011;6321;53.798;10.382;2022-10-13T02:30:41;7.37;;;3.30;;
12511;SDS011;6321;53.798;10.382;2022-10-13T02:33:08;7.07;;;3.20;;
12511;SDS011;6321;53.798;10.382;2022-10-13T02:35:34;4.93;;;3.33;;
12511;SDS011;6321;53.798;10.382;2022-10-13T02:38:00;6.80;;;3.70;;
12511;SDS011;6321;53.798;10.382;2022-10-13T02:40:26;5.13;;;3.30;;
12511;SDS011;6321;53.798;10.382;2022-10-13T02:42:52;9.20;;;4.00;;
12511;SDS011;6321;53.798;10.382;2022-10-13T02:45:17;10.73;;;3.73;;
12511;SDS011;6321;53.798;10.382;2022-10-13T02:47:43;5.10;;;3.50;;
12511;SDS011;6321;53.798;10.382;2022-10-13T02:50:10;4.53;;;2.93;;
12511;SDS011;6321;53.798;10.382;2022-10-13T02:52:35;5.37;;;3.17;;
12511;SDS011;6321;53.798;10.382;2022-10-13T02:55:02;5.67;;;3.07;;
12511;SDS011;6321;53.798;10.382;2022-10-13T02:57:28;9.10;;;3.70;;
12511;SDS011;6321;53.798;10.382;2022-10-13T02:59:54;7.53;;;3.77;;
12511;SDS011;6321;53.798;10.382;2022-10-13T03:02:20;7.47;;;3.67;;
12511;SDS011;6321;53.798;10.382;2022-10-13T03:04:47;5.70;;;3.50;;
12511;SDS011;6321;53.798;10.382;2022-10-13T03:07:13;6.07;;;3.20;;
12511;SDS011;6321;53.798;10.382;2022-10-13T03:09:39;7.90;;;3.80;;
12511;SDS011;6321;53.798;10.382;2022-10-13T03:12:04;8.90;;;4.00;;
12511;SDS011;6321;53.798;10.382;2022-10-13T03:14:30;4.57;;;3.40;;
12511;SDS011;6321;53.798;10.382;2022-10-13T03:16:56;6.37;;;4.37;;
12511;SDS011;6321;53.798;10.382;2022-10-13T03:19:23;6.13;;;3.63;;
12511;SDS011;6321;53.798;10.382;2022-10-13T03:21:48;6.33;;;3.63;;
12511;SDS011;6321;53.798;10.382;2022-10-13T03:24:14;6.10;;;3.70;;
12511;SDS011;6321;53.798;10.382;2022-10-13T03:26:40;7.47;;;3.90;;
12511;SDS011;6321;53.798;10.382;2022-10-13T03:29:06;5.80;;;3.33;;
12511;SDS011;6321;53.798;10.382;2022-10-13T03:31:32;5.10;;;4.00;;
12511;SDS011;6321;53.798;10.382;2022-10-13T03:33:58;5.73;;;3.40;;
12511;SDS011;6321;53.798;10.382;2022-10-13T03:36:24;4.97;;;3.47;;
12511;SDS011;6321;53.798;10.382;2022-10-13T03:38:50;4.33;;;3.53;;
12511;SDS011;6321;53.798;10.382;2022-10-13T03:41:16;5.40;;;4.00;;
12511;SDS011;6321;53.798;10.382;2022-10-13T03:43:43;5.37;;;3.90;;
12511;SDS011;6321;53.798;10.382;2022-10-13T03:46:10;6.27;;;2.93;;
12511;SDS011;6321;53.798;10.382;2022-10-13T03:48:36;4.73;;;3.53;;
12511;SDS011;6321;53.798;10.382;2022-10-13T03:51:03;8.97;;;4.47;;
12511;SDS011;6321;53.798;10.382;2022-10-13T03:53:30;4.90;;;3.57;;
12511;SDS011;6321;53.798;10.382;2022-10-13T03:55:56;5.57;;;4.07;;
12511;SDS011;6321;53.798;10.382;2022-10-13T03:58:22;7.17;;;4.00;;
12511;SDS011;6321;53.798;10.382;2022-10-13T04:00:49;8.07;;;3.90;;
12511;SDS011;6321;53.798;10.382;2022-10-13T04:03:15;7.83;;;4.33;;
12511;SDS011;6321;53.798;10.382;2022-10-13T04:05:42;5.47;;;3.87;;
12511;SDS011;6321;53.798;10.382;2022-10-13T04:08:08;6.33;;;4.10;;
12511;SDS011;6321;53.798;10.382;2022-10-13T04:10:34;4.40;;;4.00;;
12511;SDS011;6321;53.798;10.382;2022-10-13T04:13:00;5.30;;;4.43;;
12511;SDS011;6321;53.798;10.382;2022-10-13T04:15:26;8.67;;;4.60;;
12511;SDS011;6321;53.798;10.382;2022-10-13T04:17:52;8.63;;;4.60;;
12511;SDS011;6321;53.798;10.382;2022-10-13T04:20:18;7.50;;;4.13;;
12511;SDS011;6321;53.798;10.382;2022-10-13T04:22:44;10.27;;;4.70;;
12511;SDS011;6321;53.798;10.382;2022-10-13T04:25:10;7.97;;;4.60;;
12511;SDS011;6321;53.798;10.382;2022-10-13T04:27:36;7.90;;;4.70;;
12511;SDS011;6321;53.798;10.382;2022-10-13T04:30:04;6.23;;;5.33;;
12511;SDS011;6321;53.798;10.382;2022-10-13T04:32:30;12.90;;;5.63;;
12511;SDS011;6321;53.798;10.382;2022-10-13T04:34:56;9.13;;;5.77;;
12511;SDS011;6321;53.798;10.382;2022-10-13T04:37:23;11.20;;;5.47;;
12511;SDS011;6321;53.798;10.382;2022-10-13T04:39:49;8.40;;;6.10;;
12511;SDS011;6321;53.798;10.382;2022-10-13T04:42:15;6.60;;;5.00;;
12511;SDS011;6321;53.798;10.382;2022-10-13T04:44:41;7.27;;;5.03;;
12511;SDS011;6321;53.798;10.382;2022-10-13T04:47:07;7.67;;;5.47;;
12511;SDS011;6321;53.798;10.382;2022-10-13T04:49:33;8.70;;;5.03;;
12511;SDS011;6321;53.798;10.382;2022-10-13T04:51:59;8.20;;;5.00;;
12511;SDS011;6321;53.798;10.382;2022-10-13T04:54:25;11.97;;;5.70;;
12511;SDS011;6321;53.798;10.382;2022-10-13T04:56:51;9.00;;;5.60;;
12511;SDS011;6321;53.798;10.382;2022-10-13T04:59:16;7.53;;;5.03;;
12511;SDS011;6321;53.798;10.382;2022-10-13T05:01:42;7.23;;;5.10;;
12511;SDS011;6321;53.798;10.382;2022-10-13T05:04:08;8.33;;;6.00;;
12511;SDS011;6321;53.798;10.382;2022-10-13T05:06:36;11.93;;;5.70;;
12511;SDS011;6321;53.798;10.382;2022-10-13T05:09:02;9.50;;;6.27;;
12511;SDS011;6321;53.798;10.382;2022-10-13T05:11:28;7.50;;;4.80;;
12511;SDS011;6321;53.798;10.382;2022-10-13T05:13:54;8.63;;;6.27;;
12511;SDS011;6321;53.798;10.382;2022-10-13T05:16:21;12.47;;;5.93;;
12511;SDS011;6321;53.798;10.382;2022-10-13T05:18:48;10.67;;;6.57;;
12511;SDS011;6321;53.798;10.382;2022-10-13T05:21:15;10.33;;;6.20;;
12511;SDS011;6321;53.798;10.382;2022-10-13T05:23:41;8.93;;;5.13;;
12511;SDS011;6321;53.798;10.382;2022-10-13T05:26:08;8.83;;;6.43;;
12511;SDS011;6321;53.798;10.382;2022-10-13T05:28:35;13.00;;;5.23;;
12511;SDS011;6321;53.798;10.382;2022-10-13T05:31:20;10.60;;;6.07;;
12511;SDS011;6321;53.798;10.382;2022-10-13T05:33:47;7.57;;;5.70;;
12511;SDS011;6321;53.798;10.382;2022-10-13T05:36:14;8.27;;;5.90;;
12511;SDS011;6321;53.798;10.382;2022-10-13T05:38:41;13.30;;;6.20;;
12511;SDS011;6321;53.798;10.382;2022-10-13T05:41:08;7.83;;;5.47;;
12511;SDS011;6321;53.798;10.382;2022-10-13T05:43:34;13.00;;;6.50;;
12511;SDS011;6321;53.798;10.382;2022-10-13T05:46:01;8.27;;;5.50;;
12511;SDS011;6321;53.798;10.382;2022-10-13T05:48:27;8.97;;;6.50;;
12511;SDS011;6321;53.798;10.382;2022-10-13T05:50:53;10.07;;;5.73;;
12511;SDS011;6321;53.798;10.382;2022-10-13T05:53:21;11.30;;;5.83;;
12511;SDS011;6321;53.798;10.382;2022-10-13T05:55:47;9.53;;;6.17;;
12511;SDS011;6321;53.798;10.382;2022-10-13T05:58:14;12.37;;;6.30;;
12511;SDS011;6321;53.798;10.382;2022-10-13T06:00:40;12.63;;;7.07;;
12511;SDS011;6321;53.798;10.382;2022-10-13T06:03:08;15.17;;;6.77;;
12511;SDS011;6321;53.798;10.382;2022-10-13T06:05:35;12.63;;;7.47;;
12511;SDS011;6321;53.798;10.382;2022-10-13T06:08:01;14.03;;;7.37;;
12511;SDS011;6321;53.798;10.382;2022-10-13T06:10:27;15.93;;;8.13;;
12511;SDS011;6321;53.798;10.382;2022-10-13T06:12:53;10.40;;;7.33;;
12511;SDS011;6321;53.798;10.382;2022-10-13T06:15:19;11.47;;;6.93;;
12511;SDS011;6321;53.798;10.382;2022-10-13T06:17:45;10.60;;;6.73;;
12511;SDS011;6321;53.798;10.382;2022-10-13T06:20:11;10.10;;;7.03;;
12511;SDS011;6321;53.798;10.382;2022-10-13T06:22:37;10.67;;;6.50;;
12511;SDS011;6321;53.798;10.382;2022-10-13T06:25:04;11.13;;;6.40;;
12511;SDS011;6321;53.798;10.382;2022-10-13T06:27:30;10.93;;;7.00;;
12511;SDS011;6321;53.798;10.382;2022-10-13T06:29:56;9.57;;;6.73;;
12511;SDS011;6321;53.798;10.382;2022-10-13T06:32:22;12.70;;;6.93;;
12511;SDS011;6321;53.798;10.382;2022-10-13T06:34:49;11.90;;;7.87;;
12511;SDS011;6321;53.798;10.382;2022-10-13T06:37:14;11.57;;;7.03;;
12511;SDS011;6321;53.798;10.382;2022-10-13T06:39:40;15.03;;;7.30;;
12511;SDS011;6321;53.798;10.382;2022-10-13T06:42:07;11.30;;;7.40;;
12511;SDS011;6321;53.798;10.382;2022-10-13T06:44:33;9.63;;;6.83;;
12511;SDS011;6321;53.798;10.382;2022-10-13T06:46:59;12.10;;;6.70;;
12511;SDS011;6321;53.798;10.382;2022-10-13T06:49:26;12.07;;;7.33;;
12511;SDS011;6321;53.798;10.382;2022-10-13T06:52:01;10.30;;;6.67;;
12511;SDS011;6321;53.798;10.382;2022-10-13T06:54:27;10.90;;;6.70;;
12511;SDS011;6321;53.798;10.382;2022-10-13T06:56:53;9.27;;;6.30;;
12511;SDS011;6321;53.798;10.382;2022-10-13T06:59:19;12.87;;;7.40;;
12511;SDS011;6321;53.798;10.382;2022-10-13T07:01:46;7.90;;;6.87;;
12511;SDS011;6321;53.798;10.382;2022-10-13T07:04:13;14.83;;;7.73;;
12511;SDS011;6321;53.798;10.382;2022-10-13T07:06:39;13.63;;;7.40;;
12511;SDS011;6321;53.798;10.382;2022-10-13T07:09:06;13.93;;;8.17;;
12511;SDS011;6321;53.798;10.382;2022-10-13T07:11:32;12.37;;;7.83;;
12511;SDS011;6321;53.798;10.382;2022-10-13T07:13:58;13.93;;;7.87;;
12511;SDS011;6321;53.798;10.382;2022-10-13T07:16:24;12.47;;;7.53;;
12511;SDS011;6321;53.798;10.382;2022-10-13T07:18:50;10.07;;;7.60;;
12511;SDS011;6321;53.798;10.382;2022-10-13T07:21:16;12.47;;;7.83;;
12511;SDS011;6321;53.798;10.382;2022-10-13T07:23:42;17.33;;;7.40;;
12511;SDS011;6321;53.798;10.382;2022-10-13T07:26:08;13.73;;;8.20;;
12511;SDS011;6321;53.798;10.382;2022-10-13T07:28:35;12.93;;;8.00;;
12511;SDS011;6321;53.798;10.382;2022-10-13T07:31:05;11.73;;;7.53;;
12511;SDS011;6321;53.798;10.382;2022-10-13T07:33:32;15.60;;;8.00;;
12511;SDS011;6321;53.798;10.382;2022-10-13T07:35:58;14.60;;;8.73;;
12511;SDS011;6321;53.798;10.382;2022-10-13T07:38:24;13.23;;;9.30;;
12511;SDS011;6321;53.798;10.382;2022-10-13T07:40:50;14.37;;;8.50;;
12511;SDS011;6321;53.798;10.382;2022-10-13T07:43:15;12.20;;;8.90;;
12511;SDS011;6321;53.798;10.382;2022-10-13T07:45:41;15.23;;;8.87;;
12511;SDS011;6321;53.798;10.382;2022-10-13T07:48:07;11.43;;;8.73;;
12511;SDS011;6321;53.798;10.382;2022-10-13T07:50:34;15.90;;;9.67;;
12511;SDS011;6321;53.798;10.382;2022-10-13T07:53:01;15.73;;;10.03;;
12511;SDS011;6321;53.798;10.382;2022-10-13T07:55:27;16.30;;;9.63;;
12511;SDS011;6321;53.798;10.382;2022-10-13T07:57:52;19.10;;;9.47;;
12511;SDS011;6321;53.798;10.382;2022-10-13T08:00:18;17.47;;;10.63;;
12511;SDS011;6321;53.798;10.382;2022-10-13T08:02:47;14.50;;;10.50;;
12511;SDS011;6321;53.798;10.382;2022-10-13T08:05:14;15.67;;;10.77;;
12511;SDS011;6321;53.798;10.382;2022-10-13T08:07:40;20.60;;;10.43;;
12511;SDS011;6321;53.798;10.382;2022-10-13T08:10:06;16.60;;;10.53;;
12511;SDS011;6321;53.798;10.382;2022-10-13T08:12:34;18.93;;;10.77;;
12511;SDS011;6321;53.798;10.382;2022-10-13T08:15:00;15.57;;;9.97;;
12511;SDS011;6321;53.798;10.382;2022-10-13T08:17:26;15.97;;;10.03;;
12511;SDS011;6321;53.798;10.382;2022-10-13T08:19:52;16.47;;;10.43;;
12511;SDS011;6321;53.798;10.382;2022-10-13T08:22:18;17.17;;;11.13;;
12511;SDS011;6321;53.798;10.382;2022-10-13T08:24:44;18.73;;;10.47;;
12511;SDS011;6321;53.798;10.382;2022-10-13T08:27:10;13.97;;;9.87;;
12511;SDS011;6321;53.798;10.382;2022-10-13T08:29:38;14.30;;;9.97;;
12511;SDS011;6321;53.798;10.382;2022-10-13T08:32:04;20.43;;;10.70;;
12511;SDS011;6321;53.798;10.382;2022-10-13T08:34:30;15.80;;;10.17;;
12511;SDS011;6321;53.798;10.382;2022-10-13T08:36:57;16.23;;;10.07;;
12511;SDS011;6321;53.798;10.382;2022-10-13T08:39:24;14.50;;;10.33;;
12511;SDS011;6321;53.798;10.382;2022-10-13T08:41:50;18.20;;;9.80;;
12511;SDS011;6321;53.798;10.382;2022-10-13T08:44:21;17.53;;;10.40;;
12511;SDS011;6321;53.798;10.382;2022-10-13T08:47:03;16.90;;;10.87;;
12511;SDS011;6321;53.798;10.382;2022-10-13T08:49:31;19.20;;;9.60;;
12511;SDS011;6321;53.798;10.382;2022-10-13T08:51:57;17.37;;;10.87;;
12511;SDS011;6321;53.798;10.382;2022-10-13T08:54:24;17.37;;;9.80;;
12511;SDS011;6321;53.798;10.382;2022-10-13T08:56:50;19.67;;;10.17;;
12511;SDS011;6321;53.798;10.382;2022-10-13T08:59:17;19.10;;;11.10;;
12511;SDS011;6321;53.798;10.382;2022-10-13T09:01:45;17.60;;;11.27;;
12511;SDS011;6321;53.798;10.382;2022-10-13T09:04:32;18.13;;;11.30;;
12511;SDS011;6321;53.798;10.382;2022-10-13T09:07:14;18.77;;;10.83;;
12511;SDS011;6321;53.798;10.382;2022-10-13T09:09:40;16.43;;;11.17;;
12511;SDS011;6321;53.798;10.382;2022-10-13T09:12:08;16.53;;;11.00;;
12511;SDS011;6321;53.798;10.382;2022-10-13T09:14:36;20.47;;;11.10;;
12511;SDS011;6321;53.798;10.382;2022-10-13T09:17:16;20.87;;;11.20;;
12511;SDS011;6321;53.798;10.382;2022-10-13T09:19:42;16.67;;;11.70;;
12511;SDS011;6321;53.798;10.382;2022-10-13T09:22:18;17.40;;;10.10;;
12511;SDS011;6321;53.798;10.382;2022-10-13T09:24:47;15.53;;;10.40;;
12511;SDS011;6321;53.798;10.382;2022-10-13T09:27:22;20.97;;;10.77;;
12511;SDS011;6321;53.798;10.382;2022-10-13T09:29:48;14.97;;;9.97;;
12511;SDS011;6321;53.798;10.382;2022-10-13T09:34:40;15.77;;;11.23;;
12511;SDS011;6321;53.798;10.382;2022-10-13T09:37:12;18.13;;;10.27;;
12511;SDS011;6321;53.798;10.382;2022-10-13T09:39:41;14.13;;;10.93;;
12511;SDS011;6321;53.798;10.382;2022-10-13T09:42:26;19.90;;;10.20;;
12511;SDS011;6321;53.798;10.382;2022-10-13T09:44:56;16.20;;;10.53;;
12511;SDS011;6321;53.798;10.382;2022-10-13T09:47:23;19.80;;;10.83;;
12511;SDS011;6321;53.798;10.382;2022-10-13T09:50:00;17.33;;;10.93;;
12511;SDS011;6321;53.798;10.382;2022-10-13T09:52:27;15.10;;;10.77;;
12511;SDS011;6321;53.798;10.382;2022-10-13T09:54:57;18.00;;;11.00;;
12511;SDS011;6321;53.798;10.382;2022-10-13T09:59:51;19.93;;;11.33;;
12511;SDS011;6321;53.798;10.382;2022-10-13T10:02:19;20.03;;;10.93;;
12511;SDS011;6321;53.798;10.382;2022-10-13T10:04:45;20.20;;;9.77;;
12511;SDS011;6321;53.798;10.382;2022-10-13T10:07:12;17.43;;;11.30;;
12511;SDS011;6321;53.798;10.382;2022-10-13T10:09:43;16.13;;;10.13;;
12511;SDS011;6321;53.798;10.382;2022-10-13T10:12:17;18.10;;;10.27;;
12511;SDS011;6321;53.798;10.382;2022-10-13T10:14:43;17.43;;;11.03;;
12511;SDS011;6321;53.798;10.382;2022-10-13T10:22:24;17.77;;;11.13;;
12511;SDS011;6321;53.798;10.382;2022-10-13T10:25:00;18.20;;;10.60;;
12511;SDS011;6321;53.798;10.382;2022-10-13T10:27:30;22.00;;;10.80;;
12511;SDS011;6321;53.798;10.382;2022-10-13T10:30:01;19.10;;;11.00;;
12511;SDS011;6321;53.798;10.382;2022-10-13T10:34:59;20.23;;;11.47;;
12511;SDS011;6321;53.798;10.382;2022-10-13T10:40:17;16.47;;;10.63;;
12511;SDS011;6321;53.798;10.382;2022-10-13T10:45:23;19.40;;;10.87;;
12511;SDS011;6321;53.798;10.382;2022-10-13T10:47:50;17.10;;;10.73;;
12511;SDS011;6321;53.798;10.382;2022-10-13T10:50:18;16.40;;;11.03;;
12511;SDS011;6321;53.798;10.382;2022-10-13T10:52:54;15.47;;;10.63;;
12511;SDS011;6321;53.798;10.382;2022-10-13T10:57:54;18.57;;;10.77;;
12511;SDS011;6321;53.798;10.382;2022-10-13T11:00:23;21.03;;;11.43;;
12511;SDS011;6321;53.798;10.382;2022-10-13T11:05:17;14.63;;;10.40;;
12511;SDS011;6321;53.798;10.382;2022-10-13T11:10:17;16.80;;;10.43;;
12511;SDS011;6321;53.798;10.382;2022-10-13T11:17:43;22.33;;;12.77;;
12511;SDS011;6321;53.798;10.382;2022-10-13T11:20:56;21.73;;;12.20;;
12511;SDS011;6321;53.798;10.382;2022-10-13T11:25:34;17.30;;;11.00;;
12511;SDS011;6321;53.798;10.382;2022-10-13T11:28:17;18.93;;;11.57;;
12511;SDS011;6321;53.798;10.382;2022-10-13T11:30:53;16.70;;;10.50;;
12511;SDS011;6321;53.798;10.382;2022-10-13T11:38:48;17.63;;;11.07;;
12511;SDS011;6321;53.798;10.382;2022-10-13T11:41:22;17.80;;;10.73;;
12511;SDS011;6321;53.798;10.382;2022-10-13T11:46:24;15.00;;;10.60;;
12511;SDS011;6321;53.798;10.382;2022-10-13T11:48:56;14.80;;;10.90;;
12511;SDS011;6321;53.798;10.382;2022-10-13T11:54:09;18.00;;;10.27;;
12511;SDS011;6321;53.798;10.382;2022-10-13T11:56:45;15.93;;;9.77;;
12511;SDS011;6321;53.798;10.382;2022-10-13T11:59:23;14.93;;;10.30;;
12511;SDS011;6321;53.798;10.382;2022-10-13T12:01:53;16.43;;;10.60;;
12511;SDS011;6321;53.798;10.382;2022-10-13T12:04:20;17.00;;;9.57;;
12511;SDS011;6321;53.798;10.382;2022-10-13T12:06:47;16.23;;;10.07;;
12511;SDS011;6321;53.798;10.382;2022-10-13T12:09:19;15.10;;;9.43;;
12511;SDS011;6321;53.798;10.382;2022-10-13T12:11:45;16.20;;;9.97;;
12511;SDS011;6321;53.798;10.382;2022-10-13T12:14:18;15.10;;;9.30;;
12511;SDS011;6321;53.798;10.382;2022-10-13T12:16:54;18.63;;;10.83;;
12511;SDS011;6321;53.798;10.382;2022-10-13T12:19:22;19.87;;;9.53;;
12511;SDS011;6321;53.798;10.382;2022-10-13T12:21:49;14.47;;;9.83;;
12511;SDS011;6321;53.798;10.382;2022-10-13T12:24:15;13.30;;;8.73;;
12511;SDS011;6321;53.798;10.382;2022-10-13T12:26:41;14.90;;;10.03;;
12511;SDS011;6321;53.798;10.382;2022-10-13T12:29:10;15.23;;;9.63;;
12511;SDS011;6321;53.798;10.382;2022-10-13T12:31:38;12.20;;;8.60;;
12511;SDS011;6321;53.798;10.382;2022-10-13T12:36:42;11.10;;;8.17;;
12511;SDS011;6321;53.798;10.382;2022-10-13T12:39:11;13.77;;;8.13;;
12511;SDS011;6321;53.798;10.382;2022-10-13T12:41:39;12.30;;;8.77;;
12511;SDS011;6321;53.798;10.382;2022-10-13T12:44:07;14.97;;;9.43;;
12511;SDS011;6321;53.798;10.382;2022-10-13T12:46:38;16.13;;;8.73;;
12511;SDS011;6321;53.798;10.382;2022-10-13T12:49:21;10.83;;;8.50;;
12511;SDS011;6321;53.798;10.382;2022-10-13T12:51:48;15.33;;;8.23;;
12511;SDS011;6321;53.798;10.382;2022-10-13T12:54:17;12.20;;;7.90;;
12511;SDS011;6321;53.798;10.382;2022-10-13T12:56:43;14.83;;;8.60;;
12511;SDS011;6321;53.798;10.382;2022-10-13T12:59:15;12.97;;;8.87;;
12511;SDS011;6321;53.798;10.382;2022-10-13T13:01:42;11.43;;;7.80;;
12511;SDS011;6321;53.798;10.382;2022-10-13T13:04:25;12.40;;;9.07;;
12511;SDS011;6321;53.798;10.382;2022-10-13T13:06:58;13.43;;;8.47;;
12511;SDS011;6321;53.798;10.382;2022-10-13T13:09:25;15.37;;;8.90;;
12511;SDS011;6321;53.798;10.382;2022-10-13T13:14:34;14.93;;;8.60;;
12511;SDS011;6321;53.798;10.382;2022-10-13T13:17:01;11.60;;;8.37;;
12511;SDS011;6321;53.798;10.382;2022-10-13T13:19:29;13.47;;;8.83;;
12511;SDS011;6321;53.798;10.382;2022-10-13T13:21:56;14.33;;;8.67;;
12511;SDS011;6321;53.798;10.382;2022-10-13T13:24:22;11.40;;;8.10;;
12511;SDS011;6321;53.798;10.382;2022-10-13T13:26:47;10.33;;;8.10;;
12511;SDS011;6321;53.798;10.382;2022-10-13T13:29:13;12.67;;;8.47;;
12511;SDS011;6321;53.798;10.382;2022-10-13T13:31:39;12.40;;;8.37;;
12511;SDS011;6321;53.798;10.382;2022-10-13T13:34:05;14.17;;;8.57;;
12511;SDS011;6321;53.798;10.382;2022-10-13T13:36:31;14.63;;;8.67;;
12511;SDS011;6321;53.798;10.382;2022-10-13T13:38:57;12.33;;;8.30;;
12511;SDS011;6321;53.798;10.382;2022-10-13T13:41:23;15.20;;;7.93;;
12511;SDS011;6321;53.798;10.382;2022-10-13T13:43:51;9.67;;;7.73;;
12511;SDS011;6321;53.798;10.382;2022-10-13T13:46:19;13.33;;;8.27;;
12511;SDS011;6321;53.798;10.382;2022-10-13T13:48:45;11.60;;;8.07;;
12511;SDS011;6321;53.798;10.382;2022-10-13T13:51:11;10.13;;;7.27;;
12511;SDS011;6321;53.798;10.382;2022-10-13T13:53:37;11.20;;;7.80;;
12511;SDS011;6321;53.798;10.382;2022-10-13T13:56:03;14.70;;;8.77;;
12511;SDS011;6321;53.798;10.382;2022-10-13T13:58:29;13.27;;;6.97;;
12511;SDS011;6321;53.798;10.382;2022-10-13T14:00:57;10.97;;;7.37;;
12511;SDS011;6321;53.798;10.382;2022-10-13T14:03:23;10.90;;;7.97;;
12511;SDS011;6321;53.798;10.382;2022-10-13T14:05:49;14.10;;;7.60;;
12511;SDS011;6321;53.798;10.382;2022-10-13T14:08:15;10.73;;;7.20;;
12511;SDS011;6321;53.798;10.382;2022-10-13T14:10:41;12.17;;;7.87;;
12511;SDS011;6321;53.798;10.382;2022-10-13T14:13:07;11.57;;;7.50;;
12511;SDS011;6321;53.798;10.382;2022-10-13T14:15:33;12.30;;;8.20;;
12511;SDS011;6321;53.798;10.382;2022-10-13T14:17:59;14.63;;;7.90;;
12511;SDS011;6321;53.798;10.382;2022-10-13T14:20:24;13.27;;;7.77;;
12511;SDS011;6321;53.798;10.382;2022-10-13T14:22:50;13.07;;;7.50;;
12511;SDS011;6321;53.798;10.382;2022-10-13T14:25:16;13.87;;;7.83;;
12511;SDS011;6321;53.798;10.382;2022-10-13T14:27:42;12.57;;;8.10;;
12511;SDS011;6321;53.798;10.382;2022-10-13T14:30:09;14.73;;;7.90;;
12511;SDS011;6321;53.798;10.382;2022-10-13T14:32:36;13.57;;;7.77;;
12511;SDS011;6321;53.798;10.382;2022-10-13T14:35:02;12.37;;;7.80;;
12511;SDS011;6321;53.798;10.382;2022-10-13T14:37:28;12.47;;;8.37;;
12511;SDS011;6321;53.798;10.382;2022-10-13T14:39:54;10.83;;;7.30;;
12511;SDS011;6321;53.798;10.382;2022-10-13T14:42:20;13.37;;;8.20;;
12511;SDS011;6321;53.798;10.382;2022-10-13T14:44:46;12.30;;;7.77;;
12511;SDS011;6321;53.798;10.382;2022-10-13T14:47:12;15.07;;;7.90;;
12511;SDS011;6321;53.798;10.382;2022-10-13T14:49:38;11.83;;;7.40;;
12511;SDS011;6321;53.798;10.382;2022-10-13T14:52:04;12.17;;;7.73;;
12511;SDS011;6321;53.798;10.382;2022-10-13T14:54:30;11.93;;;7.77;;
12511;SDS011;6321;53.798;10.382;2022-10-13T14:56:56;12.70;;;7.87;;
12511;SDS011;6321;53.798;10.382;2022-10-13T14:59:24;9.30;;;7.00;;
12511;SDS011;6321;53.798;10.382;2022-10-13T15:01:50;11.73;;;7.10;;
12511;SDS011;6321;53.798;10.382;2022-10-13T15:04:16;9.50;;;6.87;;
12511;SDS011;6321;53.798;10.382;2022-10-13T15:06:42;9.30;;;6.50;;
12511;SDS011;6321;53.798;10.382;2022-10-13T15:09:08;11.60;;;6.93;;
12511;SDS011;6321;53.798;10.382;2022-10-13T15:11:36;9.93;;;7.33;;
12511;SDS011;6321;53.798;10.382;2022-10-13T15:14:02;10.70;;;6.93;;
12511;SDS011;6321;53.798;10.382;2022-10-13T15:16:28;10.43;;;6.97;;
12511;SDS011;6321;53.798;10.382;2022-10-13T15:18:56;11.03;;;7.63;;
12511;SDS011;6321;53.798;10.382;2022-10-13T15:21:22;13.50;;;7.37;;
12511;SDS011;6321;53.798;10.382;2022-10-13T15:23:48;12.97;;;7.87;;
12511;SDS011;6321;53.798;10.382;2022-10-13T15:26:15;12.63;;;7.50;;
12511;SDS011;6321;53.798;10.382;2022-10-13T15:28:42;10.50;;;7.60;;
12511;SDS011;6321;53.798;10.382;2022-10-13T15:31:09;10.37;;;7.53;;
12511;SDS011;6321;53.798;10.382;2022-10-13T15:33:35;13.67;;;8.03;;
12511;SDS011;6321;53.798;10.382;2022-10-13T15:36:01;12.60;;;7.07;;
12511;SDS011;6321;53.798;10.382;2022-10-13T15:38:27;10.67;;;7.47;;
12511;SDS011;6321;53.798;10.382;2022-10-13T15:40:59;14.57;;;7.80;;
12511;SDS011;6321;53.798;10.382;2022-10-13T15:43:26;12.10;;;7.90;;
12511;SDS011;6321;53.798;10.382;2022-10-13T15:45:56;12.53;;;7.97;;